sensor_id;sensor_type;location;lat;lon;timestamp;P1;durP1;ratioP1;P2;durP2;ratioP2
77430;SDS011;66498;48.564;19.272;2023-02-01T00:01:26;7.85;;;5.13;;
77430;SDS011;66498;48.564;19.272;2023-02-01T00:03:51;7.45;;;3.97;;
77430;SDS011;66498;48.564;19.272;2023-02-01T00:06:17;6.95;;;4.50;;
77430;SDS011;66498;48.564;19.272;2023-02-01T00:08:43;7.10;;;3.72;;
77430;SDS011;66498;48.564;19.272;2023-02-01T00:11:10;7.10;;;3.58;;
77430;SDS011;66498;48.564;19.272;2023-02-01T00:13:38;6.35;;;3.40;;
77430;SDS011;66498;48.564;19.272;2023-02-01T00:16:06;4.82;;;3.47;;
77430;SDS011;66498;48.564;19.272;2023-02-01T00:18:47;6.32;;;4.00;;
77430;SDS011;66498;48.564;19.272;2023-02-01T00:21:15;6.00;;;3.70;;
77430;SDS011;66498;48.564;19.272;2023-02-01T00:23:41;4.78;;;3.33;;
77430;SDS011;66498;48.564;19.272;2023-02-01T00:26:10;4.97;;;3.80;;
77430;SDS011;66498;48.564;19.272;2023-02-01T00:28:40;4.55;;;2.85;;
77430;SDS011;66498;48.564;19.272;2023-02-01T00:31:06;5.45;;;3.67;;
77430;SDS011;66498;48.564;19.272;2023-02-01T00:33:32;6.25;;;3.33;;
77430;SDS011;66498;48.564;19.272;2023-02-01T00:35:59;5.93;;;3.40;;
77430;SDS011;66498;48.564;19.272;2023-02-01T00:38:26;7.80;;;4.20;;
77430;SDS011;66498;48.564;19.272;2023-02-01T00:40:53;7.25;;;5.03;;
77430;SDS011;66498;48.564;19.272;2023-02-01T00:43:19;5.05;;;2.95;;
77430;SDS011;66498;48.564;19.272;2023-02-01T00:45:45;11.43;;;4.68;;
77430;SDS011;66498;48.564;19.272;2023-02-01T00:48:11;6.10;;;4.18;;
77430;SDS011;66498;48.564;19.272;2023-02-01T00:50:41;6.22;;;4.15;;
77430;SDS011;66498;48.564;19.272;2023-02-01T00:53:08;4.85;;;4.07;;
77430;SDS011;66498;48.564;19.272;2023-02-01T00:55:34;5.90;;;4.40;;
77430;SDS011;66498;48.564;19.272;2023-02-01T00:58:00;7.38;;;4.38;;
77430;SDS011;66498;48.564;19.272;2023-02-01T01:00:25;7.95;;;4.25;;
77430;SDS011;66498;48.564;19.272;2023-02-01T01:02:51;6.90;;;4.45;;
77430;SDS011;66498;48.564;19.272;2023-02-01T01:05:17;7.78;;;4.80;;
77430;SDS011;66498;48.564;19.272;2023-02-01T01:07:42;6.13;;;3.65;;
77430;SDS011;66498;48.564;19.272;2023-02-01T01:10:08;6.55;;;3.65;;
77430;SDS011;66498;48.564;19.272;2023-02-01T01:12:33;7.97;;;4.97;;
77430;SDS011;66498;48.564;19.272;2023-02-01T01:14:59;9.63;;;3.75;;
77430;SDS011;66498;48.564;19.272;2023-02-01T01:17:24;6.97;;;4.88;;
77430;SDS011;66498;48.564;19.272;2023-02-01T01:19:50;3.55;;;2.53;;
77430;SDS011;66498;48.564;19.272;2023-02-01T01:22:15;5.28;;;3.08;;
77430;SDS011;66498;48.564;19.272;2023-02-01T01:24:41;8.05;;;4.90;;
77430;SDS011;66498;48.564;19.272;2023-02-01T01:27:06;5.70;;;3.35;;
77430;SDS011;66498;48.564;19.272;2023-02-01T01:29:32;4.13;;;3.15;;
77430;SDS011;66498;48.564;19.272;2023-02-01T01:31:57;6.80;;;4.63;;
77430;SDS011;66498;48.564;19.272;2023-02-01T01:34:23;9.77;;;5.90;;
77430;SDS011;66498;48.564;19.272;2023-02-01T01:36:48;9.15;;;6.75;;
77430;SDS011;66498;48.564;19.272;2023-02-01T01:39:14;13.45;;;7.50;;
77430;SDS011;66498;48.564;19.272;2023-02-01T01:41:39;12.60;;;7.18;;
77430;SDS011;66498;48.564;19.272;2023-02-01T01:44:06;10.63;;;7.35;;
77430;SDS011;66498;48.564;19.272;2023-02-01T01:46:51;8.30;;;5.78;;
77430;SDS011;66498;48.564;19.272;2023-02-01T01:49:17;6.53;;;4.38;;
77430;SDS011;66498;48.564;19.272;2023-02-01T01:51:54;8.98;;;6.20;;
77430;SDS011;66498;48.564;19.272;2023-02-01T01:54:24;8.27;;;4.57;;
77430;SDS011;66498;48.564;19.272;2023-02-01T01:57:17;5.90;;;4.13;;
77430;SDS011;66498;48.564;19.272;2023-02-01T02:00:14;7.80;;;4.53;;
77430;SDS011;66498;48.564;19.272;2023-02-01T02:02:43;7.05;;;4.63;;
77430;SDS011;66498;48.564;19.272;2023-02-01T02:05:13;7.10;;;5.05;;
77430;SDS011;66498;48.564;19.272;2023-02-01T02:07:40;8.52;;;4.40;;
77430;SDS011;66498;48.564;19.272;2023-02-01T02:10:10;7.50;;;5.30;;
77430;SDS011;66498;48.564;19.272;2023-02-01T02:12:37;8.57;;;3.33;;
77430;SDS011;66498;48.564;19.272;2023-02-01T02:15:05;9.60;;;5.72;;
77430;SDS011;66498;48.564;19.272;2023-02-01T02:37:01;5.20;;;3.90;;
77430;SDS011;66498;48.564;19.272;2023-02-01T02:42:32;6.55;;;3.67;;
77430;SDS011;66498;48.564;19.272;2023-02-01T02:45:23;8.07;;;4.53;;
77430;SDS011;66498;48.564;19.272;2023-02-01T03:00:11;10.43;;;6.88;;
77430;SDS011;66498;48.564;19.272;2023-02-01T03:02:58;9.85;;;7.25;;
77430;SDS011;66498;48.564;19.272;2023-02-01T03:05:44;11.82;;;7.95;;
77430;SDS011;66498;48.564;19.272;2023-02-01T03:08:15;14.07;;;8.65;;
77430;SDS011;66498;48.564;19.272;2023-02-01T03:16:36;11.00;;;6.28;;
77430;SDS011;66498;48.564;19.272;2023-02-01T03:24:33;5.07;;;2.40;;
77430;SDS011;66498;48.564;19.272;2023-02-01T03:32:43;4.30;;;1.90;;
77430;SDS011;66498;48.564;19.272;2023-02-01T03:35:44;2.60;;;2.08;;
77430;SDS011;66498;48.564;19.272;2023-02-01T03:38:38;3.95;;;2.40;;
77430;SDS011;66498;48.564;19.272;2023-02-01T03:43:59;2.67;;;1.58;;
77430;SDS011;66498;48.564;19.272;2023-02-01T03:46:33;3.08;;;2.10;;
77430;SDS011;66498;48.564;19.272;2023-02-01T03:49:05;2.92;;;2.00;;
77430;SDS011;66498;48.564;19.272;2023-02-01T03:51:34;2.90;;;2.05;;
77430;SDS011;66498;48.564;19.272;2023-02-01T03:54:03;3.53;;;2.28;;
77430;SDS011;66498;48.564;19.272;2023-02-01T03:56:31;3.45;;;1.52;;
77430;SDS011;66498;48.564;19.272;2023-02-01T03:59:02;3.33;;;2.00;;
77430;SDS011;66498;48.564;19.272;2023-02-01T04:01:28;4.07;;;2.30;;
77430;SDS011;66498;48.564;19.272;2023-02-01T04:03:56;3.95;;;2.40;;
77430;SDS011;66498;48.564;19.272;2023-02-01T04:06:23;1.58;;;1.48;;
77430;SDS011;66498;48.564;19.272;2023-02-01T04:08:49;2.28;;;1.50;;
77430;SDS011;66498;48.564;19.272;2023-02-01T04:11:15;2.80;;;1.88;;
77430;SDS011;66498;48.564;19.272;2023-02-01T04:13:41;3.80;;;2.05;;
77430;SDS011;66498;48.564;19.272;2023-02-01T04:16:07;2.45;;;2.08;;
77430;SDS011;66498;48.564;19.272;2023-02-01T04:18:33;4.25;;;2.30;;
77430;SDS011;66498;48.564;19.272;2023-02-01T04:20:59;1.90;;;1.63;;
77430;SDS011;66498;48.564;19.272;2023-02-01T04:23:26;4.25;;;2.10;;
77430;SDS011;66498;48.564;19.272;2023-02-01T04:25:52;2.97;;;2.05;;
77430;SDS011;66498;48.564;19.272;2023-02-01T04:28:18;3.28;;;2.33;;
77430;SDS011;66498;48.564;19.272;2023-02-01T04:30:43;5.45;;;2.03;;
77430;SDS011;66498;48.564;19.272;2023-02-01T04:33:10;4.93;;;2.42;;
77430;SDS011;66498;48.564;19.272;2023-02-01T04:35:39;6.78;;;2.35;;
77430;SDS011;66498;48.564;19.272;2023-02-01T04:38:05;5.03;;;2.88;;
77430;SDS011;66498;48.564;19.272;2023-02-01T04:40:31;9.18;;;3.58;;
77430;SDS011;66498;48.564;19.272;2023-02-01T04:42:57;6.65;;;3.30;;
77430;SDS011;66498;48.564;19.272;2023-02-01T04:45:23;5.95;;;4.13;;
77430;SDS011;66498;48.564;19.272;2023-02-01T04:47:49;8.90;;;4.00;;
77430;SDS011;66498;48.564;19.272;2023-02-01T04:50:14;5.85;;;3.78;;
77430;SDS011;66498;48.564;19.272;2023-02-01T04:52:40;2.58;;;2.00;;
77430;SDS011;66498;48.564;19.272;2023-02-01T04:55:06;4.43;;;2.38;;
77430;SDS011;66498;48.564;19.272;2023-02-01T04:57:32;4.25;;;2.15;;
77430;SDS011;66498;48.564;19.272;2023-02-01T04:59:58;2.88;;;2.45;;
77430;SDS011;66498;48.564;19.272;2023-02-01T05:02:23;2.35;;;1.55;;
77430;SDS011;66498;48.564;19.272;2023-02-01T05:04:49;3.45;;;2.20;;
77430;SDS011;66498;48.564;19.272;2023-02-01T05:07:15;3.08;;;1.90;;
77430;SDS011;66498;48.564;19.272;2023-02-01T05:09:41;4.93;;;3.20;;
77430;SDS011;66498;48.564;19.272;2023-02-01T05:12:07;4.53;;;2.50;;
77430;SDS011;66498;48.564;19.272;2023-02-01T05:14:53;4.53;;;2.25;;
77430;SDS011;66498;48.564;19.272;2023-02-01T05:17:19;8.27;;;2.50;;
77430;SDS011;66498;48.564;19.272;2023-02-01T05:19:44;2.58;;;1.63;;
77430;SDS011;66498;48.564;19.272;2023-02-01T05:22:10;7.38;;;2.80;;
77430;SDS011;66498;48.564;19.272;2023-02-01T05:24:35;3.83;;;2.15;;
77430;SDS011;66498;48.564;19.272;2023-02-01T05:27:01;4.72;;;2.25;;
77430;SDS011;66498;48.564;19.272;2023-02-01T05:29:27;2.75;;;1.80;;
77430;SDS011;66498;48.564;19.272;2023-02-01T05:31:53;3.92;;;1.58;;
77430;SDS011;66498;48.564;19.272;2023-02-01T05:34:18;4.10;;;1.90;;
77430;SDS011;66498;48.564;19.272;2023-02-01T05:36:44;3.17;;;1.98;;
77430;SDS011;66498;48.564;19.272;2023-02-01T05:39:09;6.60;;;2.50;;
77430;SDS011;66498;48.564;19.272;2023-02-01T05:41:35;9.23;;;3.70;;
77430;SDS011;66498;48.564;19.272;2023-02-01T05:44:01;5.53;;;3.67;;
77430;SDS011;66498;48.564;19.272;2023-02-01T05:46:27;4.28;;;2.60;;
77430;SDS011;66498;48.564;19.272;2023-02-01T05:48:53;3.17;;;1.98;;
77430;SDS011;66498;48.564;19.272;2023-02-01T05:51:19;3.97;;;2.45;;
77430;SDS011;66498;48.564;19.272;2023-02-01T05:53:44;2.55;;;1.85;;
77430;SDS011;66498;48.564;19.272;2023-02-01T05:56:10;2.13;;;1.83;;
77430;SDS011;66498;48.564;19.272;2023-02-01T05:58:36;3.30;;;2.10;;
77430;SDS011;66498;48.564;19.272;2023-02-01T06:01:02;8.55;;;2.10;;
77430;SDS011;66498;48.564;19.272;2023-02-01T06:03:28;3.83;;;2.08;;
77430;SDS011;66498;48.564;19.272;2023-02-01T06:05:54;3.25;;;2.08;;
77430;SDS011;66498;48.564;19.272;2023-02-01T06:08:19;4.20;;;1.90;;
77430;SDS011;66498;48.564;19.272;2023-02-01T06:10:45;4.28;;;2.35;;
77430;SDS011;66498;48.564;19.272;2023-02-01T06:13:11;3.67;;;2.13;;
77430;SDS011;66498;48.564;19.272;2023-02-01T06:15:36;3.22;;;1.90;;
77430;SDS011;66498;48.564;19.272;2023-02-01T06:18:07;4.22;;;1.55;;
77430;SDS011;66498;48.564;19.272;2023-02-01T06:20:32;2.15;;;1.70;;
77430;SDS011;66498;48.564;19.272;2023-02-01T06:22:58;3.22;;;2.42;;
77430;SDS011;66498;48.564;19.272;2023-02-01T06:25:24;2.92;;;1.92;;
77430;SDS011;66498;48.564;19.272;2023-02-01T06:27:49;4.35;;;2.20;;
77430;SDS011;66498;48.564;19.272;2023-02-01T06:30:15;2.88;;;1.90;;
77430;SDS011;66498;48.564;19.272;2023-02-01T06:32:41;5.30;;;2.08;;
77430;SDS011;66498;48.564;19.272;2023-02-01T06:35:09;5.10;;;2.08;;
77430;SDS011;66498;48.564;19.272;2023-02-01T06:37:41;5.10;;;2.42;;
77430;SDS011;66498;48.564;19.272;2023-02-01T06:40:07;8.13;;;2.53;;
77430;SDS011;66498;48.564;19.272;2023-02-01T06:42:33;6.55;;;2.80;;
77430;SDS011;66498;48.564;19.272;2023-02-01T06:44:59;6.03;;;3.03;;
77430;SDS011;66498;48.564;19.272;2023-02-01T06:47:25;7.55;;;3.85;;
77430;SDS011;66498;48.564;19.272;2023-02-01T06:49:51;3.67;;;2.30;;
77430;SDS011;66498;48.564;19.272;2023-02-01T06:52:16;7.50;;;2.95;;
77430;SDS011;66498;48.564;19.272;2023-02-01T06:54:42;6.05;;;2.83;;
77430;SDS011;66498;48.564;19.272;2023-02-01T06:57:07;7.47;;;3.92;;
77430;SDS011;66498;48.564;19.272;2023-02-01T06:59:33;4.57;;;3.33;;
77430;SDS011;66498;48.564;19.272;2023-02-01T07:01:58;4.90;;;2.60;;
77430;SDS011;66498;48.564;19.272;2023-02-01T07:04:24;7.95;;;3.42;;
77430;SDS011;66498;48.564;19.272;2023-02-01T07:06:49;13.23;;;5.55;;
77430;SDS011;66498;48.564;19.272;2023-02-01T07:09:15;9.00;;;3.30;;
77430;SDS011;66498;48.564;19.272;2023-02-01T07:11:41;8.30;;;2.65;;
77430;SDS011;66498;48.564;19.272;2023-02-01T07:14:08;9.35;;;3.47;;
77430;SDS011;66498;48.564;19.272;2023-02-01T07:16:35;7.03;;;3.80;;
77430;SDS011;66498;48.564;19.272;2023-02-01T07:19:01;6.53;;;3.97;;
77430;SDS011;66498;48.564;19.272;2023-02-01T07:21:26;8.45;;;4.32;;
77430;SDS011;66498;48.564;19.272;2023-02-01T07:23:53;6.93;;;3.95;;
77430;SDS011;66498;48.564;19.272;2023-02-01T07:26:19;7.22;;;3.00;;
77430;SDS011;66498;48.564;19.272;2023-02-01T07:28:45;12.50;;;4.32;;
77430;SDS011;66498;48.564;19.272;2023-02-01T07:31:15;9.90;;;5.20;;
77430;SDS011;66498;48.564;19.272;2023-02-01T07:33:44;8.65;;;4.35;;
77430;SDS011;66498;48.564;19.272;2023-02-01T07:36:11;7.75;;;4.18;;
77430;SDS011;66498;48.564;19.272;2023-02-01T07:38:38;9.43;;;4.68;;
77430;SDS011;66498;48.564;19.272;2023-02-01T07:41:04;8.55;;;4.80;;
77430;SDS011;66498;48.564;19.272;2023-02-01T07:43:31;7.90;;;4.20;;
77430;SDS011;66498;48.564;19.272;2023-02-01T07:45:58;5.15;;;3.00;;
77430;SDS011;66498;48.564;19.272;2023-02-01T07:48:24;5.88;;;3.35;;
77430;SDS011;66498;48.564;19.272;2023-02-01T07:50:58;6.38;;;3.33;;
77430;SDS011;66498;48.564;19.272;2023-02-01T07:53:25;7.55;;;3.78;;
77430;SDS011;66498;48.564;19.272;2023-02-01T07:55:51;7.93;;;4.50;;
77430;SDS011;66498;48.564;19.272;2023-02-01T07:58:17;12.48;;;5.30;;
77430;SDS011;66498;48.564;19.272;2023-02-01T08:00:42;16.13;;;5.28;;
77430;SDS011;66498;48.564;19.272;2023-02-01T08:03:27;12.40;;;5.97;;
77430;SDS011;66498;48.564;19.272;2023-02-01T08:05:55;7.50;;;4.20;;
77430;SDS011;66498;48.564;19.272;2023-02-01T08:08:21;8.93;;;4.32;;
77430;SDS011;66498;48.564;19.272;2023-02-01T08:10:47;8.55;;;5.05;;
77430;SDS011;66498;48.564;19.272;2023-02-01T08:13:13;20.42;;;3.08;;
77430;SDS011;66498;48.564;19.272;2023-02-01T08:15:39;5.25;;;2.75;;
77430;SDS011;66498;48.564;19.272;2023-02-01T08:18:04;10.45;;;3.63;;
77430;SDS011;66498;48.564;19.272;2023-02-01T08:20:30;5.10;;;2.40;;
77430;SDS011;66498;48.564;19.272;2023-02-01T08:22:56;7.90;;;3.30;;
77430;SDS011;66498;48.564;19.272;2023-02-01T08:25:22;7.53;;;3.15;;
77430;SDS011;66498;48.564;19.272;2023-02-01T08:27:48;7.47;;;2.78;;
77430;SDS011;66498;48.564;19.272;2023-02-01T08:30:15;7.15;;;3.58;;
77430;SDS011;66498;48.564;19.272;2023-02-01T08:32:41;5.22;;;2.45;;
77430;SDS011;66498;48.564;19.272;2023-02-01T08:35:06;4.32;;;2.33;;
77430;SDS011;66498;48.564;19.272;2023-02-01T08:37:33;4.78;;;2.53;;
77430;SDS011;66498;48.564;19.272;2023-02-01T08:39:59;5.47;;;3.22;;
77430;SDS011;66498;48.564;19.272;2023-02-01T08:42:25;2.97;;;2.15;;
77430;SDS011;66498;48.564;19.272;2023-02-01T08:45:09;5.55;;;2.00;;
77430;SDS011;66498;48.564;19.272;2023-02-01T08:47:35;4.68;;;2.17;;
77430;SDS011;66498;48.564;19.272;2023-02-01T08:50:00;5.45;;;2.40;;
77430;SDS011;66498;48.564;19.272;2023-02-01T08:52:26;5.53;;;2.40;;
77430;SDS011;66498;48.564;19.272;2023-02-01T08:54:52;2.25;;;1.80;;
77430;SDS011;66498;48.564;19.272;2023-02-01T08:57:18;2.58;;;1.85;;
77430;SDS011;66498;48.564;19.272;2023-02-01T08:59:43;5.30;;;2.42;;
77430;SDS011;66498;48.564;19.272;2023-02-01T09:02:11;3.53;;;1.80;;
77430;SDS011;66498;48.564;19.272;2023-02-01T09:04:38;1.67;;;1.42;;
77430;SDS011;66498;48.564;19.272;2023-02-01T09:07:04;3.60;;;2.22;;
77430;SDS011;66498;48.564;19.272;2023-02-01T09:09:30;4.18;;;2.08;;
77430;SDS011;66498;48.564;19.272;2023-02-01T09:11:55;4.18;;;2.10;;
77430;SDS011;66498;48.564;19.272;2023-02-01T09:14:21;1.83;;;1.48;;
77430;SDS011;66498;48.564;19.272;2023-02-01T09:16:47;4.72;;;2.00;;
77430;SDS011;66498;48.564;19.272;2023-02-01T09:19:12;8.82;;;3.40;;
77430;SDS011;66498;48.564;19.272;2023-02-01T09:21:39;3.70;;;2.15;;
77430;SDS011;66498;48.564;19.272;2023-02-01T09:24:05;1.92;;;1.65;;
77430;SDS011;66498;48.564;19.272;2023-02-01T09:26:31;5.22;;;1.75;;
77430;SDS011;66498;48.564;19.272;2023-02-01T09:28:57;2.92;;;1.55;;
77430;SDS011;66498;48.564;19.272;2023-02-01T09:31:24;2.42;;;1.77;;
77430;SDS011;66498;48.564;19.272;2023-02-01T09:33:49;5.82;;;2.08;;
77430;SDS011;66498;48.564;19.272;2023-02-01T09:36:15;4.47;;;2.55;;
77430;SDS011;66498;48.564;19.272;2023-02-01T09:38:41;4.53;;;2.70;;
77430;SDS011;66498;48.564;19.272;2023-02-01T09:41:10;7.30;;;3.13;;
77430;SDS011;66498;48.564;19.272;2023-02-01T09:44:08;7.82;;;2.35;;
77430;SDS011;66498;48.564;19.272;2023-02-01T09:46:37;6.93;;;2.70;;
77430;SDS011;66498;48.564;19.272;2023-02-01T09:49:10;4.63;;;2.33;;
77430;SDS011;66498;48.564;19.272;2023-02-01T09:51:42;7.60;;;3.63;;
77430;SDS011;66498;48.564;19.272;2023-02-01T09:54:18;5.60;;;2.75;;
77430;SDS011;66498;48.564;19.272;2023-02-01T09:56:48;3.17;;;1.92;;
77430;SDS011;66498;48.564;19.272;2023-02-01T09:59:23;2.53;;;1.80;;
77430;SDS011;66498;48.564;19.272;2023-02-01T10:02:16;4.70;;;2.13;;
77430;SDS011;66498;48.564;19.272;2023-02-01T10:04:45;2.95;;;2.03;;
77430;SDS011;66498;48.564;19.272;2023-02-01T10:09:58;7.43;;;3.33;;
77430;SDS011;66498;48.564;19.272;2023-02-01T10:22:45;4.20;;;1.95;;
77430;SDS011;66498;48.564;19.272;2023-02-01T10:25:26;6.18;;;1.98;;
77430;SDS011;66498;48.564;19.272;2023-02-01T10:27:59;5.57;;;2.47;;
77430;SDS011;66498;48.564;19.272;2023-02-01T10:30:29;5.43;;;2.47;;
77430;SDS011;66498;48.564;19.272;2023-02-01T10:33:12;7.15;;;3.42;;
77430;SDS011;66498;48.564;19.272;2023-02-01T10:35:39;5.70;;;2.90;;
77430;SDS011;66498;48.564;19.272;2023-02-01T10:38:09;6.85;;;2.58;;
77430;SDS011;66498;48.564;19.272;2023-02-01T10:40:47;7.75;;;2.45;;
77430;SDS011;66498;48.564;19.272;2023-02-01T10:43:13;3.92;;;2.00;;
77430;SDS011;66498;48.564;19.272;2023-02-01T10:45:39;3.05;;;1.88;;
77430;SDS011;66498;48.564;19.272;2023-02-01T10:48:07;6.38;;;2.50;;
77430;SDS011;66498;48.564;19.272;2023-02-01T10:53:28;6.72;;;3.17;;
77430;SDS011;66498;48.564;19.272;2023-02-01T10:56:05;3.13;;;2.40;;
77430;SDS011;66498;48.564;19.272;2023-02-01T11:01:06;10.75;;;2.38;;
77430;SDS011;66498;48.564;19.272;2023-02-01T11:03:37;7.53;;;3.22;;
77430;SDS011;66498;48.564;19.272;2023-02-01T11:11:32;7.15;;;2.80;;
77430;SDS011;66498;48.564;19.272;2023-02-01T11:14:18;3.45;;;2.17;;
77430;SDS011;66498;48.564;19.272;2023-02-01T11:19:57;4.72;;;2.10;;
77430;SDS011;66498;48.564;19.272;2023-02-01T11:22:25;3.88;;;1.98;;
77430;SDS011;66498;48.564;19.272;2023-02-01T11:24:53;2.70;;;1.80;;
77430;SDS011;66498;48.564;19.272;2023-02-01T11:27:20;4.80;;;2.20;;
77430;SDS011;66498;48.564;19.272;2023-02-01T11:29:49;5.35;;;2.20;;
77430;SDS011;66498;48.564;19.272;2023-02-01T11:32:18;2.15;;;1.42;;
77430;SDS011;66498;48.564;19.272;2023-02-01T11:39:56;4.67;;;1.87;;
77430;SDS011;66498;48.564;19.272;2023-02-01T11:42:23;5.80;;;3.00;;
77430;SDS011;66498;48.564;19.272;2023-02-01T11:44:51;6.47;;;3.17;;
77430;SDS011;66498;48.564;19.272;2023-02-01T11:47:42;3.10;;;2.10;;
77430;SDS011;66498;48.564;19.272;2023-02-01T11:50:17;7.85;;;3.40;;
77430;SDS011;66498;48.564;19.272;2023-02-01T12:09:21;8.40;;;3.67;;
77430;SDS011;66498;48.564;19.272;2023-02-01T12:12:03;6.93;;;3.50;;
77430;SDS011;66498;48.564;19.272;2023-02-01T12:14:41;10.40;;;3.88;;
77430;SDS011;66498;48.564;19.272;2023-02-01T12:33:17;5.85;;;2.97;;
77430;SDS011;66498;48.564;19.272;2023-02-01T12:49:54;7.60;;;3.70;;
77430;SDS011;66498;48.564;19.272;2023-02-01T12:52:54;8.23;;;4.65;;
77430;SDS011;66498;48.564;19.272;2023-02-01T12:58:24;5.57;;;3.17;;
77430;SDS011;66498;48.564;19.272;2023-02-01T13:01:05;5.15;;;2.83;;
77430;SDS011;66498;48.564;19.272;2023-02-01T13:03:39;6.53;;;3.78;;
77430;SDS011;66498;48.564;19.272;2023-02-01T13:06:38;5.82;;;3.20;;
77430;SDS011;66498;48.564;19.272;2023-02-01T13:11:52;4.75;;;2.80;;
77430;SDS011;66498;48.564;19.272;2023-02-01T13:17:44;5.53;;;2.63;;
77430;SDS011;66498;48.564;19.272;2023-02-01T13:20:30;4.57;;;2.58;;
77430;SDS011;66498;48.564;19.272;2023-02-01T13:23:09;3.58;;;2.58;;
77430;SDS011;66498;48.564;19.272;2023-02-01T13:25:56;3.40;;;2.13;;
77430;SDS011;66498;48.564;19.272;2023-02-01T13:29:09;5.32;;;2.85;;
77430;SDS011;66498;48.564;19.272;2023-02-01T13:39:48;6.07;;;3.30;;
77430;SDS011;66498;48.564;19.272;2023-02-01T13:42:26;4.55;;;2.40;;
77430;SDS011;66498;48.564;19.272;2023-02-01T13:44:59;8.38;;;2.92;;
77430;SDS011;66498;48.564;19.272;2023-02-01T13:47:35;6.72;;;3.78;;
77430;SDS011;66498;48.564;19.272;2023-02-01T13:50:17;11.48;;;5.75;;
77430;SDS011;66498;48.564;19.272;2023-02-01T13:52:56;3.15;;;2.28;;
77430;SDS011;66498;48.564;19.272;2023-02-01T13:55:32;6.47;;;3.10;;
77430;SDS011;66498;48.564;19.272;2023-02-01T14:00:46;2.55;;;1.95;;
77430;SDS011;66498;48.564;19.272;2023-02-01T14:03:21;2.70;;;2.03;;
77430;SDS011;66498;48.564;19.272;2023-02-01T14:08:20;3.25;;;1.90;;
77430;SDS011;66498;48.564;19.272;2023-02-01T14:10:55;4.65;;;2.40;;
77430;SDS011;66498;48.564;19.272;2023-02-01T14:13:28;10.80;;;6.53;;
77430;SDS011;66498;48.564;19.272;2023-02-01T14:21:18;6.93;;;3.40;;
77430;SDS011;66498;48.564;19.272;2023-02-01T14:34:48;13.65;;;9.35;;
77430;SDS011;66498;48.564;19.272;2023-02-01T14:44:47;6.80;;;3.40;;
77430;SDS011;66498;48.564;19.272;2023-02-01T14:52:20;3.88;;;2.60;;
77430;SDS011;66498;48.564;19.272;2023-02-01T14:54:54;4.18;;;2.22;;
77430;SDS011;66498;48.564;19.272;2023-02-01T14:57:25;4.00;;;2.42;;
77430;SDS011;66498;48.564;19.272;2023-02-01T14:59:59;4.22;;;2.80;;
77430;SDS011;66498;48.564;19.272;2023-02-01T15:02:34;6.95;;;3.83;;
77430;SDS011;66498;48.564;19.272;2023-02-01T15:05:12;3.80;;;2.75;;
77430;SDS011;66498;48.564;19.272;2023-02-01T15:07:55;5.03;;;2.85;;
77430;SDS011;66498;48.564;19.272;2023-02-01T15:10:25;5.05;;;3.30;;
77430;SDS011;66498;48.564;19.272;2023-02-01T15:12:52;4.97;;;3.30;;
77430;SDS011;66498;48.564;19.272;2023-02-01T15:15:19;6.75;;;3.42;;
77430;SDS011;66498;48.564;19.272;2023-02-01T15:17:51;3.20;;;2.08;;
77430;SDS011;66498;48.564;19.272;2023-02-01T15:20:22;5.37;;;3.80;;
77430;SDS011;66498;48.564;19.272;2023-02-01T15:22:57;4.72;;;3.38;;
77430;SDS011;66498;48.564;19.272;2023-02-01T15:25:28;4.65;;;3.00;;
77430;SDS011;66498;48.564;19.272;2023-02-01T15:27:56;5.22;;;3.63;;
77430;SDS011;66498;48.564;19.272;2023-02-01T15:30:24;9.70;;;5.30;;
77430;SDS011;66498;48.564;19.272;2023-02-01T15:35:41;5.07;;;3.65;;
77430;SDS011;66498;48.564;19.272;2023-02-01T15:43:27;3.97;;;3.20;;
77430;SDS011;66498;48.564;19.272;2023-02-01T15:45:58;6.93;;;4.22;;
77430;SDS011;66498;48.564;19.272;2023-02-01T15:48:28;6.25;;;2.80;;
77430;SDS011;66498;48.564;19.272;2023-02-01T15:51:00;8.35;;;3.58;;
77430;SDS011;66498;48.564;19.272;2023-02-01T15:53:26;6.05;;;3.67;;
77430;SDS011;66498;48.564;19.272;2023-02-01T15:55:57;5.97;;;3.65;;
77430;SDS011;66498;48.564;19.272;2023-02-01T15:58:25;7.50;;;4.07;;
77430;SDS011;66498;48.564;19.272;2023-02-01T16:03:25;5.38;;;2.85;;
77430;SDS011;66498;48.564;19.272;2023-02-01T16:05:58;4.75;;;3.13;;
77430;SDS011;66498;48.564;19.272;2023-02-01T16:08:27;3.95;;;2.80;;
77430;SDS011;66498;48.564;19.272;2023-02-01T16:10:59;6.65;;;3.45;;
77430;SDS011;66498;48.564;19.272;2023-02-01T16:13:27;5.22;;;3.28;;
77430;SDS011;66498;48.564;19.272;2023-02-01T16:15:52;4.53;;;3.30;;
77430;SDS011;66498;48.564;19.272;2023-02-01T16:18:18;6.15;;;3.97;;
77430;SDS011;66498;48.564;19.272;2023-02-01T16:20:44;6.75;;;3.78;;
77430;SDS011;66498;48.564;19.272;2023-02-01T16:23:12;5.47;;;3.03;;
77430;SDS011;66498;48.564;19.272;2023-02-01T16:25:38;3.58;;;2.60;;
77430;SDS011;66498;48.564;19.272;2023-02-01T16:28:04;4.45;;;3.28;;
77430;SDS011;66498;48.564;19.272;2023-02-01T16:30:30;7.60;;;4.03;;
77430;SDS011;66498;48.564;19.272;2023-02-01T16:32:57;5.70;;;3.75;;
77430;SDS011;66498;48.564;19.272;2023-02-01T16:35:25;4.32;;;3.22;;
77430;SDS011;66498;48.564;19.272;2023-02-01T16:37:51;3.95;;;3.13;;
77430;SDS011;66498;48.564;19.272;2023-02-01T16:40:17;4.40;;;3.22;;
77430;SDS011;66498;48.564;19.272;2023-02-01T16:42:47;5.55;;;3.97;;
77430;SDS011;66498;48.564;19.272;2023-02-01T16:45:15;7.63;;;4.72;;
77430;SDS011;66498;48.564;19.272;2023-02-01T16:47:42;9.30;;;6.63;;
77430;SDS011;66498;48.564;19.272;2023-02-01T16:50:21;14.20;;;9.18;;
77430;SDS011;66498;48.564;19.272;2023-02-01T16:52:50;10.07;;;6.50;;
77430;SDS011;66498;48.564;19.272;2023-02-01T16:55:17;13.20;;;8.30;;
77430;SDS011;66498;48.564;19.272;2023-02-01T16:57:46;11.93;;;7.28;;
77430;SDS011;66498;48.564;19.272;2023-02-01T17:00:12;12.02;;;6.85;;
77430;SDS011;66498;48.564;19.272;2023-02-01T17:02:38;12.13;;;8.13;;
77430;SDS011;66498;48.564;19.272;2023-02-01T17:05:05;11.27;;;7.13;;
77430;SDS011;66498;48.564;19.272;2023-02-01T17:07:31;10.48;;;5.68;;
77430;SDS011;66498;48.564;19.272;2023-02-01T17:09:57;8.10;;;5.30;;
77430;SDS011;66498;48.564;19.272;2023-02-01T17:12:24;17.85;;;12.70;;
77430;SDS011;66498;48.564;19.272;2023-02-01T17:14:52;10.18;;;7.32;;
77430;SDS011;66498;48.564;19.272;2023-02-01T17:17:21;8.52;;;5.40;;
77430;SDS011;66498;48.564;19.272;2023-02-01T17:19:48;8.07;;;5.30;;
77430;SDS011;66498;48.564;19.272;2023-02-01T17:22:18;7.57;;;5.28;;
77430;SDS011;66498;48.564;19.272;2023-02-01T17:24:45;10.93;;;6.47;;
77430;SDS011;66498;48.564;19.272;2023-02-01T17:27:11;10.25;;;7.20;;
77430;SDS011;66498;48.564;19.272;2023-02-01T17:29:37;12.77;;;7.45;;
77430;SDS011;66498;48.564;19.272;2023-02-01T17:32:02;13.40;;;9.20;;
77430;SDS011;66498;48.564;19.272;2023-02-01T17:34:29;14.45;;;9.70;;
77430;SDS011;66498;48.564;19.272;2023-02-01T17:36:55;14.85;;;10.10;;
77430;SDS011;66498;48.564;19.272;2023-02-01T17:39:21;12.93;;;8.85;;
77430;SDS011;66498;48.564;19.272;2023-02-01T17:42:08;9.07;;;6.35;;
77430;SDS011;66498;48.564;19.272;2023-02-01T17:44:35;9.93;;;5.93;;
77430;SDS011;66498;48.564;19.272;2023-02-01T17:47:01;13.05;;;7.28;;
77430;SDS011;66498;48.564;19.272;2023-02-01T17:49:27;10.82;;;5.93;;
77430;SDS011;66498;48.564;19.272;2023-02-01T17:51:55;6.60;;;4.68;;
77430;SDS011;66498;48.564;19.272;2023-02-01T17:54:22;6.55;;;4.32;;
77430;SDS011;66498;48.564;19.272;2023-02-01T17:56:49;7.55;;;4.30;;
77430;SDS011;66498;48.564;19.272;2023-02-01T17:59:15;5.90;;;4.15;;
77430;SDS011;66498;48.564;19.272;2023-02-01T18:01:42;8.25;;;3.97;;